sensor_id;sensor_type;location;lat;lon;timestamp;pressure;altitude;pressure_sealevel;temperature;humidity
73842;BME280;62184;52.006;5.924;2023-07-31T00:01:36;100199.84;;;20.59;59.91
73842;BME280;62184;52.006;5.924;2023-07-31T00:04:03;100197.38;;;20.56;60.44
73842;BME280;62184;52.006;5.924;2023-07-31T00:06:29;100189.13;;;20.58;60.30
73842;BME280;62184;52.006;5.924;2023-07-31T00:08:56;100181.72;;;20.60;61.45
73842;BME280;62184;52.006;5.924;2023-07-31T00:11:22;100180.00;;;20.59;61.41
73842;BME280;62184;52.006;5.924;2023-07-31T00:13:49;100176.44;;;20.58;62.09
73842;BME280;62184;52.006;5.924;2023-07-31T00:16:18;100175.66;;;20.56;62.10
73842;BME280;62184;52.006;5.924;2023-07-31T00:18:44;100167.41;;;20.58;62.46
73842;BME280;62184;52.006;5.924;2023-07-31T00:21:11;100163.56;;;20.61;62.22
73842;BME280;62184;52.006;5.924;2023-07-31T00:23:37;100166.19;;;20.62;62.40
73842;BME280;62184;52.006;5.924;2023-07-31T00:26:04;100166.06;;;20.64;62.59
73842;BME280;62184;52.006;5.924;2023-07-31T00:28:30;100158.56;;;20.67;62.45
73842;BME280;62184;52.006;5.924;2023-07-31T00:30:57;100158.41;;;20.69;62.55
73842;BME280;62184;52.006;5.924;2023-07-31T00:33:26;100153.00;;;20.69;62.68
73842;BME280;62184;52.006;5.924;2023-07-31T00:35:52;100144.25;;;20.65;62.94
73842;BME280;62184;52.006;5.924;2023-07-31T00:38:19;100139.78;;;20.64;63.07
73842;BME280;62184;52.006;5.924;2023-07-31T00:40:45;100145.97;;;20.66;63.56
73842;BME280;62184;52.006;5.924;2023-07-31T00:43:12;100146.69;;;20.68;63.64
73842;BME280;62184;52.006;5.924;2023-07-31T00:45:38;100141.41;;;20.67;63.44
73842;BME280;62184;52.006;5.924;2023-07-31T00:48:05;100142.78;;;20.72;63.54
73842;BME280;62184;52.006;5.924;2023-07-31T00:50:35;100136.84;;;20.78;63.77
73842;BME280;62184;52.006;5.924;2023-07-31T00:53:02;100135.66;;;20.82;63.97
73842;BME280;62184;52.006;5.924;2023-07-31T00:55:29;100143.31;;;20.88;63.74
73842;BME280;62184;52.006;5.924;2023-07-31T00:57:56;100129.34;;;20.93;63.67
73842;BME280;62184;52.006;5.924;2023-07-31T01:00:22;100139.91;;;20.98;63.92
73842;BME280;62184;52.006;5.924;2023-07-31T01:02:50;100136.69;;;21.04;63.73
73842;BME280;62184;52.006;5.924;2023-07-31T01:05:18;100137.91;;;21.11;63.78
73842;BME280;62184;52.006;5.924;2023-07-31T01:08:04;100131.16;;;21.16;63.57
73842;BME280;62184;52.006;5.924;2023-07-31T01:10:46;100139.78;;;21.21;64.17
73842;BME280;62184;52.006;5.924;2023-07-31T01:13:17;100134.72;;;21.28;63.89
73842;BME280;62184;52.006;5.924;2023-07-31T01:15:45;100122.63;;;21.32;64.08
73842;BME280;62184;52.006;5.924;2023-07-31T01:18:11;100118.44;;;21.39;64.14
73842;BME280;62184;52.006;5.924;2023-07-31T01:20:41;100122.88;;;21.40;64.25
73842;BME280;62184;52.006;5.924;2023-07-31T01:23:35;100111.75;;;21.43;63.93
73842;BME280;62184;52.006;5.924;2023-07-31T01:26:21;100121.63;;;21.44;63.98
73842;BME280;62184;52.006;5.924;2023-07-31T01:28:56;100128.28;;;21.51;64.52
73842;BME280;62184;52.006;5.924;2023-07-31T01:31:29;100122.38;;;21.57;63.88
73842;BME280;62184;52.006;5.924;2023-07-31T01:33:59;100114.22;;;21.57;64.13
73842;BME280;62184;52.006;5.924;2023-07-31T01:36:28;100119.38;;;21.60;64.06
73842;BME280;62184;52.006;5.924;2023-07-31T01:38:58;100115.44;;;21.64;64.19
73842;BME280;62184;52.006;5.924;2023-07-31T01:41:27;100113.31;;;21.68;63.96
73842;BME280;62184;52.006;5.924;2023-07-31T01:43:54;100112.19;;;21.70;63.25
73842;BME280;62184;52.006;5.924;2023-07-31T01:46:20;100115.56;;;21.74;63.49
73842;BME280;62184;52.006;5.924;2023-07-31T01:48:47;100113.59;;;21.76;63.43
73842;BME280;62184;52.006;5.924;2023-07-31T01:51:13;100111.00;;;21.75;63.78
73842;BME280;62184;52.006;5.924;2023-07-31T01:53:40;100101.59;;;21.79;63.48
73842;BME280;62184;52.006;5.924;2023-07-31T01:56:06;100100.59;;;21.80;63.14
73842;BME280;62184;52.006;5.924;2023-07-31T01:58:35;100091.91;;;21.86;63.55
73842;BME280;62184;52.006;5.924;2023-07-31T02:01:02;100086.13;;;21.90;63.11
73842;BME280;62184;52.006;5.924;2023-07-31T02:03:28;100080.81;;;21.89;63.07
73842;BME280;62184;52.006;5.924;2023-07-31T02:05:55;100090.94;;;21.87;63.09
73842;BME280;62184;52.006;5.924;2023-07-31T02:08:21;100087.09;;;21.89;63.06
73842;BME280;62184;52.006;5.924;2023-07-31T02:10:47;100087.97;;;21.90;62.47
73842;BME280;62184;52.006;5.924;2023-07-31T02:13:14;100086.00;;;21.92;62.89
73842;BME280;62184;52.006;5.924;2023-07-31T02:15:43;100088.72;;;21.92;62.43
73842;BME280;62184;52.006;5.924;2023-07-31T02:18:11;100085.91;;;21.82;62.59
73842;BME280;62184;52.006;5.924;2023-07-31T02:20:37;100091.44;;;21.69;62.58
73842;BME280;62184;52.006;5.924;2023-07-31T02:23:04;100089.97;;;21.65;62.92
73842;BME280;62184;52.006;5.924;2023-07-31T02:25:30;100079.47;;;21.61;62.89
73842;BME280;62184;52.006;5.924;2023-07-31T02:27:56;100072.47;;;21.58;63.22
73842;BME280;62184;52.006;5.924;2023-07-31T02:30:23;100079.53;;;21.50;62.92
73842;BME280;62184;52.006;5.924;2023-07-31T02:32:52;100084.09;;;21.49;63.45
73842;BME280;62184;52.006;5.924;2023-07-31T02:35:18;100077.16;;;21.45;63.39
73842;BME280;62184;52.006;5.924;2023-07-31T02:37:45;100069.53;;;21.39;63.55
73842;BME280;62184;52.006;5.924;2023-07-31T02:40:12;100072.25;;;21.39;63.59
73842;BME280;62184;52.006;5.924;2023-07-31T02:42:39;100076.81;;;21.39;63.32
73842;BME280;62184;52.006;5.924;2023-07-31T02:45:07;100073.34;;;21.37;63.40
73842;BME280;62184;52.006;5.924;2023-07-31T02:47:34;100064.44;;;21.34;63.35
73842;BME280;62184;52.006;5.924;2023-07-31T02:50:04;100066.81;;;21.39;63.81
73842;BME280;62184;52.006;5.924;2023-07-31T02:52:31;100073.22;;;21.49;63.56
73842;BME280;62184;52.006;5.924;2023-07-31T02:54:58;100068.66;;;21.50;64.01
73842;BME280;62184;52.006;5.924;2023-07-31T02:57:24;100081.25;;;21.51;63.70
73842;BME280;62184;52.006;5.924;2023-07-31T02:59:51;100075.66;;;21.52;63.98
73842;BME280;62184;52.006;5.924;2023-07-31T03:02:17;100073.22;;;21.49;63.75
73842;BME280;62184;52.006;5.924;2023-07-31T03:04:44;100069.25;;;21.53;63.96
73842;BME280;62184;52.006;5.924;2023-07-31T03:07:13;100075.03;;;21.60;63.93
73842;BME280;62184;52.006;5.924;2023-07-31T03:09:39;100071.31;;;21.61;63.86
73842;BME280;62184;52.006;5.924;2023-07-31T03:12:07;100073.91;;;21.62;63.89
73842;BME280;62184;52.006;5.924;2023-07-31T03:14:34;100075.53;;;21.65;63.54
73842;BME280;62184;52.006;5.924;2023-07-31T03:17:01;100069.97;;;21.66;63.48
73842;BME280;62184;52.006;5.924;2023-07-31T03:19:30;100060.09;;;21.65;63.37
73842;BME280;62184;52.006;5.924;2023-07-31T03:21:57;100060.56;;;21.70;63.29
73842;BME280;62184;52.006;5.924;2023-07-31T03:24:26;100064.88;;;21.73;62.93
73842;BME280;62184;52.006;5.924;2023-07-31T03:26:54;100063.94;;;21.74;62.81
73842;BME280;62184;52.006;5.924;2023-07-31T03:29:20;100062.06;;;21.75;62.84
73842;BME280;62184;52.006;5.924;2023-07-31T03:31:47;100048.47;;;21.75;62.76
73842;BME280;62184;52.006;5.924;2023-07-31T03:34:13;100056.63;;;21.75;62.44
73842;BME280;62184;52.006;5.924;2023-07-31T03:36:40;100060.22;;;21.75;62.21
73842;BME280;62184;52.006;5.924;2023-07-31T03:39:06;100058.81;;;21.69;62.09
73842;BME280;62184;52.006;5.924;2023-07-31T03:41:35;100054.38;;;21.68;62.33
73842;BME280;62184;52.006;5.924;2023-07-31T03:44:02;100057.72;;;21.72;62.41
73842;BME280;62184;52.006;5.924;2023-07-31T03:46:29;100053.91;;;21.75;61.96
73842;BME280;62184;52.006;5.924;2023-07-31T03:48:55;100052.06;;;21.75;62.15
73842;BME280;62184;52.006;5.924;2023-07-31T03:51:22;100060.81;;;21.79;62.05
73842;BME280;62184;52.006;5.924;2023-07-31T03:53:48;100054.38;;;21.80;61.49
73842;BME280;62184;52.006;5.924;2023-07-31T03:56:15;100045.25;;;21.81;61.77
73842;BME280;62184;52.006;5.924;2023-07-31T03:58:44;100054.38;;;21.80;61.28
73842;BME280;62184;52.006;5.924;2023-07-31T04:01:10;100052.53;;;21.80;61.48
73842;BME280;62184;52.006;5.924;2023-07-31T04:03:37;100056.97;;;21.81;61.02
73842;BME280;62184;52.006;5.924;2023-07-31T04:06:03;100054.38;;;21.80;61.50
73842;BME280;62184;52.006;5.924;2023-07-31T04:08:30;100055.25;;;21.80;61.15
73842;BME280;62184;52.006;5.924;2023-07-31T04:10:56;100050.91;;;21.78;61.23
73842;BME280;62184;52.006;5.924;2023-07-31T04:13:23;100047.22;;;21.79;60.91
73842;BME280;62184;52.006;5.924;2023-07-31T04:15:52;100048.94;;;21.80;60.83
73842;BME280;62184;52.006;5.924;2023-07-31T04:18:18;100044.38;;;21.80;60.81
73842;BME280;62184;52.006;5.924;2023-07-31T04:20:45;100047.22;;;21.79;60.65
73842;BME280;62184;52.006;5.924;2023-07-31T04:23:11;100041.78;;;21.79;60.80
73842;BME280;62184;52.006;5.924;2023-07-31T04:25:38;100034.59;;;21.78;60.81
73842;BME280;62184;52.006;5.924;2023-07-31T04:28:04;100031.19;;;21.76;60.75
73842;BME280;62184;52.006;5.924;2023-07-31T04:30:31;100034.88;;;21.75;60.80
73842;BME280;62184;52.006;5.924;2023-07-31T04:33:00;100030.16;;;21.77;60.61
73842;BME280;62184;52.006;5.924;2023-07-31T04:35:27;100036.97;;;21.82;60.25
73842;BME280;62184;52.006;5.924;2023-07-31T04:37:53;100023.25;;;21.84;60.21
73842;BME280;62184;52.006;5.924;2023-07-31T04:40:21;100027.81;;;21.83;60.35
73842;BME280;62184;52.006;5.924;2023-07-31T04:42:47;100024.69;;;21.88;60.11
73842;BME280;62184;52.006;5.924;2023-07-31T04:45:14;100025.31;;;21.91;59.98
73842;BME280;62184;52.006;5.924;2023-07-31T04:47:41;100016.00;;;21.94;59.99
73842;BME280;62184;52.006;5.924;2023-07-31T04:50:10;100014.75;;;21.98;59.89
73842;BME280;62184;52.006;5.924;2023-07-31T04:52:36;100014.50;;;22.01;59.60
73842;BME280;62184;52.006;5.924;2023-07-31T04:55:03;100015.09;;;22.04;59.65
73842;BME280;62184;52.006;5.924;2023-07-31T04:57:30;100022.13;;;22.07;59.90
73842;BME280;62184;52.006;5.924;2023-07-31T04:59:57;100019.41;;;22.07;59.59
73842;BME280;62184;52.006;5.924;2023-07-31T05:02:23;100014.22;;;22.04;59.67
73842;BME280;62184;52.006;5.924;2023-07-31T05:04:50;100015.50;;;22.00;59.52
73842;BME280;62184;52.006;5.924;2023-07-31T05:07:19;100011.06;;;21.99;59.31
73842;BME280;62184;52.006;5.924;2023-07-31T05:09:45;100005.63;;;21.99;59.39
73842;BME280;62184;52.006;5.924;2023-07-31T05:12:12;99999.19;;;22.00;59.33
73842;BME280;62184;52.006;5.924;2023-07-31T05:14:38;100002.91;;;21.99;59.35
73842;BME280;62184;52.006;5.924;2023-07-31T05:17:05;100009.91;;;22.01;59.60
73842;BME280;62184;52.006;5.924;2023-07-31T05:19:32;100004.88;;;21.97;59.61
73842;BME280;62184;52.006;5.924;2023-07-31T05:21:58;100000.72;;;21.93;59.22
73842;BME280;62184;52.006;5.924;2023-07-31T05:24:27;99989.34;;;21.88;59.58
73842;BME280;62184;52.006;5.924;2023-07-31T05:26:54;99983.16;;;21.86;59.67
73842;BME280;62184;52.006;5.924;2023-07-31T05:29:20;99982.91;;;21.89;59.74
73842;BME280;62184;52.006;5.924;2023-07-31T05:31:47;99987.91;;;21.84;59.65
73842;BME280;62184;52.006;5.924;2023-07-31T05:34:13;99982.59;;;21.82;59.69
73842;BME280;62184;52.006;5.924;2023-07-31T05:36:40;99989.13;;;21.80;59.38
73842;BME280;62184;52.006;5.924;2023-07-31T05:39:06;99996.84;;;21.75;59.23
73842;BME280;62184;52.006;5.924;2023-07-31T05:41:35;99998.69;;;21.74;59.59
73842;BME280;62184;52.006;5.924;2023-07-31T05:44:02;99987.44;;;21.67;59.87
73842;BME280;62184;52.006;5.924;2023-07-31T05:46:29;99986.06;;;21.62;59.63
73842;BME280;62184;52.006;5.924;2023-07-31T05:48:55;99984.63;;;21.58;59.62
73842;BME280;62184;52.006;5.924;2023-07-31T05:51:22;99982.28;;;21.53;60.05
73842;BME280;62184;52.006;5.924;2023-07-31T05:53:49;99987.84;;;21.52;60.20
73842;BME280;62184;52.006;5.924;2023-07-31T05:56:15;99987.38;;;21.47;60.41
73842;BME280;62184;52.006;5.924;2023-07-31T05:58:44;99986.25;;;21.49;60.28
73842;BME280;62184;52.006;5.924;2023-07-31T06:01:10;99983.28;;;21.52;60.75
73842;BME280;62184;52.006;5.924;2023-07-31T06:03:37;99965.75;;;21.45;60.36
73842;BME280;62184;52.006;5.924;2023-07-31T06:06:03;99976.91;;;21.42;60.93
73842;BME280;62184;52.006;5.924;2023-07-31T06:08:30;99969.13;;;21.38;61.06
73842;BME280;62184;52.006;5.924;2023-07-31T06:10:56;99968.00;;;21.40;61.32
73842;BME280;62184;52.006;5.924;2023-07-31T06:13:23;99954.66;;;21.37;61.51
73842;BME280;62184;52.006;5.924;2023-07-31T06:15:52;99953.22;;;21.33;61.42
73842;BME280;62184;52.006;5.924;2023-07-31T06:18:18;99945.31;;;21.30;61.63
73842;BME280;62184;52.006;5.924;2023-07-31T06:20:45;99954.09;;;21.33;62.14
73842;BME280;62184;52.006;5.924;2023-07-31T06:23:12;99945.53;;;21.38;61.75
73842;BME280;62184;52.006;5.924;2023-07-31T06:25:38;99956.41;;;21.38;61.95
73842;BME280;62184;52.006;5.924;2023-07-31T06:28:05;99951.84;;;21.39;62.74
73842;BME280;62184;52.006;5.924;2023-07-31T06:30:31;99947.25;;;21.39;63.05
73842;BME280;62184;52.006;5.924;2023-07-31T06:33:00;99945.00;;;21.44;62.84
73842;BME280;62184;52.006;5.924;2023-07-31T06:35:27;99941.91;;;21.49;63.00
73842;BME280;62184;52.006;5.924;2023-07-31T06:37:53;99933.38;;;21.53;63.21
73842;BME280;62184;52.006;5.924;2023-07-31T06:40:20;99938.81;;;21.53;63.28
73842;BME280;62184;52.006;5.924;2023-07-31T06:42:47;99927.59;;;21.47;62.88
73842;BME280;62184;52.006;5.924;2023-07-31T06:45:14;99924.25;;;21.43;63.27
73842;BME280;62184;52.006;5.924;2023-07-31T06:47:40;99929.06;;;21.51;63.73
73842;BME280;62184;52.006;5.924;2023-07-31T06:50:10;99930.00;;;21.61;63.09
73842;BME280;62184;52.006;5.924;2023-07-31T06:52:36;99925.91;;;21.66;63.37
73842;BME280;62184;52.006;5.924;2023-07-31T06:55:03;99923.91;;;21.68;63.23
73842;BME280;62184;52.006;5.924;2023-07-31T06:57:42;99914.50;;;21.73;63.35
73842;BME280;62184;52.006;5.924;2023-07-31T07:00:10;99916.16;;;21.75;62.81
73842;BME280;62184;52.006;5.924;2023-07-31T07:02:37;99917.72;;;21.78;62.93
73842;BME280;62184;52.006;5.924;2023-07-31T07:05:04;99919.94;;;21.84;63.03
73842;BME280;62184;52.006;5.924;2023-07-31T07:07:33;99915.19;;;21.86;62.81
73842;BME280;62184;52.006;5.924;2023-07-31T07:10:00;99907.03;;;21.86;62.72
73842;BME280;62184;52.006;5.924;2023-07-31T07:12:28;99911.59;;;21.85;62.81
73842;BME280;62184;52.006;5.924;2023-07-31T07:14:56;99903.94;;;21.90;62.57
73842;BME280;62184;52.006;5.924;2023-07-31T07:17:22;99906.53;;;21.92;62.76
73842;BME280;62184;52.006;5.924;2023-07-31T07:19:49;99904.50;;;21.94;62.77
73842;BME280;62184;52.006;5.924;2023-07-31T07:22:15;99899.38;;;21.91;63.19
73842;BME280;62184;52.006;5.924;2023-07-31T07:24:44;99899.06;;;21.94;63.18
73842;BME280;62184;52.006;5.924;2023-07-31T07:27:11;99893.81;;;22.02;63.31
73842;BME280;62184;52.006;5.924;2023-07-31T07:29:38;99890.31;;;22.11;63.35
73842;BME280;62184;52.006;5.924;2023-07-31T07:32:05;99895.22;;;22.17;62.90
73842;BME280;62184;52.006;5.924;2023-07-31T07:34:32;99899.31;;;22.12;62.80
73842;BME280;62184;52.006;5.924;2023-07-31T07:36:58;99892.31;;;22.09;63.18
73842;BME280;62184;52.006;5.924;2023-07-31T07:39:25;99903.19;;;22.09;62.93
73842;BME280;62184;52.006;5.924;2023-07-31T07:41:54;99888.00;;;22.06;62.79
73842;BME280;62184;52.006;5.924;2023-07-31T07:44:20;99905.06;;;22.08;63.20
73842;BME280;62184;52.006;5.924;2023-07-31T07:46:47;99894.31;;;22.07;63.00
73842;BME280;62184;52.006;5.924;2023-07-31T07:49:13;99897.75;;;22.09;62.72
73842;BME280;62184;52.006;5.924;2023-07-31T07:51:40;99894.03;;;22.10;62.76
73842;BME280;62184;52.006;5.924;2023-07-31T07:54:06;99894.63;;;22.14;62.58
73842;BME280;62184;52.006;5.924;2023-07-31T07:56:33;99896.94;;;22.18;62.72
73842;BME280;62184;52.006;5.924;2023-07-31T07:59:02;99890.84;;;22.26;62.66
73842;BME280;62184;52.006;5.924;2023-07-31T08:01:28;99884.25;;;22.28;62.68
73842;BME280;62184;52.006;5.924;2023-07-31T08:03:55;99885.22;;;22.27;62.44
73842;BME280;62184;52.006;5.924;2023-07-31T08:06:21;99887.25;;;22.25;62.78
73842;BME280;62184;52.006;5.924;2023-07-31T08:08:48;99878.94;;;22.27;62.39
73842;BME280;62184;52.006;5.924;2023-07-31T08:11:14;99887.44;;;22.33;62.81
73842;BME280;62184;52.006;5.924;2023-07-31T08:13:41;99871.41;;;22.40;62.57
73842;BME280;62184;52.006;5.924;2023-07-31T08:16:11;99873.00;;;22.42;62.73
73842;BME280;62184;52.006;5.924;2023-07-31T08:18:37;99873.28;;;22.39;62.30
73842;BME280;62184;52.006;5.924;2023-07-31T08:21:04;99872.53;;;22.37;62.66
73842;BME280;62184;52.006;5.924;2023-07-31T08:23:31;99878.97;;;22.36;62.30
73842;BME280;62184;52.006;5.924;2023-07-31T08:25:57;99874.41;;;22.37;62.76
73842;BME280;62184;52.006;5.924;2023-07-31T08:28:24;99863.97;;;22.42;62.48
73842;BME280;62184;52.006;5.924;2023-07-31T08:30:51;99869.75;;;22.49;62.55
73842;BME280;62184;52.006;5.924;2023-07-31T08:33:20;99865.91;;;22.51;62.71
73842;BME280;62184;52.006;5.924;2023-07-31T08:35:46;99862.75;;;22.56;62.82
73842;BME280;62184;52.006;5.924;2023-07-31T08:38:13;99860.16;;;22.54;62.16
73842;BME280;62184;52.006;5.924;2023-07-31T08:40:39;99865.75;;;22.53;62.76
73842;BME280;62184;52.006;5.924;2023-07-31T08:43:07;99856.72;;;22.52;62.96
73842;BME280;62184;52.006;5.924;2023-07-31T08:45:35;99843.44;;;22.59;63.02
73842;BME280;62184;52.006;5.924;2023-07-31T08:48:01;99859.78;;;22.59;62.45
73842;BME280;62184;52.006;5.924;2023-07-31T08:50:31;99869.38;;;22.63;63.09
73842;BME280;62184;52.006;5.924;2023-07-31T08:52:58;99868.81;;;22.59;62.57
73842;BME280;62184;52.006;5.924;2023-07-31T08:55:25;99853.91;;;22.63;62.91
73842;BME280;62184;52.006;5.924;2023-07-31T08:57:54;99858.09;;;22.67;63.04
73842;BME280;62184;52.006;5.924;2023-07-31T09:00:23;99865.66;;;22.64;62.63
73842;BME280;62184;52.006;5.924;2023-07-31T09:02:56;99859.22;;;22.65;62.52
73842;BME280;62184;52.006;5.924;2023-07-31T09:05:26;99851.63;;;22.68;62.78
73842;BME280;62184;52.006;5.924;2023-07-31T09:07:57;99864.56;;;22.76;63.32
73842;BME280;62184;52.006;5.924;2023-07-31T09:10:24;99859.09;;;22.86;62.88
73842;BME280;62184;52.006;5.924;2023-07-31T09:12:51;99861.13;;;22.83;62.27
73842;BME280;62184;52.006;5.924;2023-07-31T09:15:18;99851.06;;;22.74;62.65
73842;BME280;62184;52.006;5.924;2023-07-31T09:17:45;99852.22;;;22.72;62.52
73842;BME280;62184;52.006;5.924;2023-07-31T09:20:16;99854.78;;;22.73;62.65
73842;BME280;62184;52.006;5.924;2023-07-31T09:22:44;99853.97;;;22.82;62.33
73842;BME280;62184;52.006;5.924;2023-07-31T09:25:18;99850.50;;;22.80;62.26
73842;BME280;62184;52.006;5.924;2023-07-31T09:27:47;99851.22;;;22.82;63.40
73842;BME280;62184;52.006;5.924;2023-07-31T09:30:18;99850.09;;;22.85;63.44
73842;BME280;62184;52.006;5.924;2023-07-31T09:32:45;99852.66;;;22.87;63.14
73842;BME280;62184;52.006;5.924;2023-07-31T09:35:20;99843.47;;;22.78;63.28
73842;BME280;62184;52.006;5.924;2023-07-31T09:37:49;99838.75;;;22.80;63.38
73842;BME280;62184;52.006;5.924;2023-07-31T09:40:28;99847.19;;;22.77;63.38
73842;BME280;62184;52.006;5.924;2023-07-31T09:42:57;99838.03;;;22.78;63.84
73842;BME280;62184;52.006;5.924;2023-07-31T09:45:25;99836.00;;;22.70;63.09
73842;BME280;62184;52.006;5.924;2023-07-31T09:47:52;99834.84;;;22.63;63.87
73842;BME280;62184;52.006;5.924;2023-07-31T09:50:20;99834.84;;;22.63;63.90
73842;BME280;62184;52.006;5.924;2023-07-31T09:52:48;99842.19;;;22.72;64.00
73842;BME280;62184;52.006;5.924;2023-07-31T09:55:15;99831.88;;;22.76;63.68
73842;BME280;62184;52.006;5.924;2023-07-31T09:57:46;99831.88;;;22.86;63.44
73842;BME280;62184;52.006;5.924;2023-07-31T10:00:15;99826.44;;;22.95;63.68
73842;BME280;62184;52.006;5.924;2023-07-31T10:02:45;99825.91;;;23.01;63.47
73842;BME280;62184;52.006;5.924;2023-07-31T10:05:14;99831.03;;;23.04;63.12
73842;BME280;62184;52.006;5.924;2023-07-31T10:07:42;99825.47;;;23.06;63.06
73842;BME280;62184;52.006;5.924;2023-07-31T10:10:16;99833.34;;;23.09;63.33
73842;BME280;62184;52.006;5.924;2023-07-31T10:12:47;99823.75;;;23.14;63.32
73842;BME280;62184;52.006;5.924;2023-07-31T10:15:15;99826.63;;;23.23;62.88
73842;BME280;62184;52.006;5.924;2023-07-31T10:17:42;99830.09;;;23.25;62.52
73842;BME280;62184;52.006;5.924;2023-07-31T10:20:10;99839.00;;;23.27;62.85
73842;BME280;62184;52.006;5.924;2023-07-31T10:22:38;99818.03;;;23.27;62.62
73842;BME280;62184;52.006;5.924;2023-07-31T10:25:08;99823.34;;;23.29;62.71
73842;BME280;62184;52.006;5.924;2023-07-31T10:27:35;99840.00;;;23.35;62.69
73842;BME280;62184;52.006;5.924;2023-07-31T10:30:09;99821.59;;;23.37;62.35
73842;BME280;62184;52.006;5.924;2023-07-31T10:32:38;99834.38;;;23.37;62.31
73842;BME280;62184;52.006;5.924;2023-07-31T10:35:08;99837.53;;;23.42;62.02
73842;BME280;62184;52.006;5.924;2023-07-31T10:37:37;99837.81;;;23.39;62.49
73842;BME280;62184;52.006;5.924;2023-07-31T10:40:07;99825.19;;;23.38;62.46
73842;BME280;62184;52.006;5.924;2023-07-31T10:42:37;99825.91;;;23.40;62.57
73842;BME280;62184;52.006;5.924;2023-07-31T10:45:13;99831.97;;;23.43;62.12
73842;BME280;62184;52.006;5.924;2023-07-31T10:47:49;99830.22;;;23.52;62.47
73842;BME280;62184;52.006;5.924;2023-07-31T10:50:23;99829.03;;;23.64;62.60
73842;BME280;62184;52.006;5.924;2023-07-31T10:52:51;99832.19;;;23.69;61.96
73842;BME280;62184;52.006;5.924;2023-07-31T10:55:25;99821.00;;;23.72;61.97
73842;BME280;62184;52.006;5.924;2023-07-31T10:57:58;99820.72;;;23.75;61.96
73842;BME280;62184;52.006;5.924;2023-07-31T11:00:34;99820.72;;;23.75;62.24
73842;BME280;62184;52.006;5.924;2023-07-31T11:03:04;99823.56;;;23.83;62.39
73842;BME280;62184;52.006;5.924;2023-07-31T11:05:47;99816.09;;;23.85;61.83
73842;BME280;62184;52.006;5.924;2023-07-31T11:08:17;99822.69;;;23.83;61.88
73842;BME280;62184;52.006;5.924;2023-07-31T11:10:46;99823.44;;;23.75;61.76
73842;BME280;62184;52.006;5.924;2023-07-31T11:13:14;99811.09;;;23.71;62.39
73842;BME280;62184;52.006;5.924;2023-07-31T11:15:44;99814.13;;;23.68;62.10
73842;BME280;62184;52.006;5.924;2023-07-31T11:18:10;99817.41;;;23.62;62.25
73842;BME280;62184;52.006;5.924;2023-07-31T11:20:38;99821.72;;;23.65;62.68
73842;BME280;62184;52.006;5.924;2023-07-31T11:23:06;99825.72;;;23.61;62.36
73842;BME280;62184;52.006;5.924;2023-07-31T11:25:36;99824.72;;;23.62;62.29
73842;BME280;62184;52.006;5.924;2023-07-31T11:28:04;99826.03;;;23.67;62.50
73842;BME280;62184;52.006;5.924;2023-07-31T11:30:32;99823.72;;;23.72;62.56
73842;BME280;62184;52.006;5.924;2023-07-31T11:33:03;99818.84;;;23.66;61.87
73842;BME280;62184;52.006;5.924;2023-07-31T11:35:31;99811.09;;;23.62;62.25
73842;BME280;62184;52.006;5.924;2023-07-31T11:37:59;99812.41;;;23.57;61.88
73842;BME280;62184;52.006;5.924;2023-07-31T11:40:27;99810.84;;;23.55;62.44
73842;BME280;62184;52.006;5.924;2023-07-31T11:42:54;99817.56;;;23.61;62.55
73842;BME280;62184;52.006;5.924;2023-07-31T11:45:24;99802.03;;;23.71;62.42
73842;BME280;62184;52.006;5.924;2023-07-31T11:47:54;99806.06;;;23.76;62.36
73842;BME280;62184;52.006;5.924;2023-07-31T11:50:24;99809.66;;;23.77;62.21
73842;BME280;62184;52.006;5.924;2023-07-31T11:52:53;99809.91;;;23.83;61.99
73842;BME280;62184;52.006;5.924;2023-07-31T11:55:23;99815.38;;;23.83;61.97
73842;BME280;62184;52.006;5.924;2023-07-31T11:57:52;99818.38;;;23.90;62.20
73842;BME280;62184;52.006;5.924;2023-07-31T12:00:21;99804.88;;;23.98;61.62
73842;BME280;62184;52.006;5.924;2023-07-31T12:02:48;99813.63;;;24.02;62.00
73842;BME280;62184;52.006;5.924;2023-07-31T12:05:16;99819.78;;;24.04;61.96
73842;BME280;62184;52.006;5.924;2023-07-31T12:07:50;99811.75;;;24.02;61.63
73842;BME280;62184;52.006;5.924;2023-07-31T12:10:25;99812.16;;;24.07;61.38
73842;BME280;62184;52.006;5.924;2023-07-31T12:13:00;99808.41;;;24.18;61.60
73842;BME280;62184;52.006;5.924;2023-07-31T12:15:38;99803.34;;;24.23;60.87
73842;BME280;62184;52.006;5.924;2023-07-31T12:18:07;99800.75;;;24.21;61.23
73842;BME280;62184;52.006;5.924;2023-07-31T12:20:35;99807.06;;;24.22;61.04
73842;BME280;62184;52.006;5.924;2023-07-31T12:23:13;99807.69;;;24.16;60.72
73842;BME280;62184;52.006;5.924;2023-07-31T12:25:40;99804.84;;;24.08;60.93
73842;BME280;62184;52.006;5.924;2023-07-31T12:28:07;99805.84;;;24.07;60.84
73842;BME280;62184;52.006;5.924;2023-07-31T12:30:34;99801.78;;;24.11;60.74
73842;BME280;62184;52.006;5.924;2023-07-31T12:33:04;99811.41;;;24.15;60.96
73842;BME280;62184;52.006;5.924;2023-07-31T12:35:35;99805.38;;;24.11;60.82
73842;BME280;62184;52.006;5.924;2023-07-31T12:38:03;99806.41;;;24.10;60.68
73842;BME280;62184;52.006;5.924;2023-07-31T12:40:32;99797.53;;;24.08;60.44
73842;BME280;62184;52.006;5.924;2023-07-31T12:43:01;99795.94;;;24.06;60.32
73842;BME280;62184;52.006;5.924;2023-07-31T12:45:28;99787.34;;;24.01;60.36
73842;BME280;62184;52.006;5.924;2023-07-31T12:47:54;99787.66;;;23.98;60.62
73842;BME280;62184;52.006;5.924;2023-07-31T12:50:21;99792.53;;;23.94;60.45
73842;BME280;62184;52.006;5.924;2023-07-31T12:52:47;99787.94;;;23.94;60.52
73842;BME280;62184;52.006;5.924;2023-07-31T12:55:13;99792.09;;;23.89;60.97
73842;BME280;62184;52.006;5.924;2023-07-31T12:57:43;99803.28;;;23.86;61.12
73842;BME280;62184;52.006;5.924;2023-07-31T13:00:11;99785.50;;;23.82;61.36